Yuho Maru No.3 — JD2491 — position and weather

sailwx.info

Track history (hours):
 
Tides and Currents Weather Stations Pressure Air Temp Water Temp Dewpoint Dewpoint Depression Visibility Wind Speed Wind Dir Waves Ship Positions

Yuho Maru No.3

Last reported at 2016-Jun-24 00:22 UTC. Time now 2016-Jun-30 10:33 UTC.
Position N 34°07' E 135°08'.

Length 65 m; draft 4.2 m.

Type: Tanker. MMSI: 431000336.

Date/timePositionNaut miles runAvg speedWind from/ knotsBaromVisibWave heightAir tempDewpointWater temp
2016-Jun-24 00:22N 34°07' E 135°08'0 0.0
2016-Jun-23 23:33N 34°07' E 135°08'0 0.0
2016-Jun-23 22:04N 34°07' E 135°08'0 1.0
2016-Jun-23 21:33N 34°07' E 135°08'0 0.0
2016-Jun-23 20:18N 34°07' E 135°08'0 0.0
2016-Jun-23 19:30N 34°07' E 135°08'0 0.2
2016-Jun-23 18:33N 34°07' E 135°07'  
2016-Jun-16 04:33N 35°14' E 139°46'1110.7
2016-Jun-16 03:33N 35°24' E 139°43'8 7.6
2016-Jun-16 02:33N 35°32' E 139°46'0 0.0
2016-Jun-16 01:33N 35°32' E 139°46'0 0.0
2016-Jun-16 00:33N 35°32' E 139°46'0 0.0
2016-Jun-15 23:33N 35°32' E 139°46'0 0.0
2016-Jun-15 22:33N 35°32' E 139°46'2 1.6
2016-Jun-15 21:33N 35°30' E 139°47'1110.9
2016-Jun-15 20:33N 35°34' E 139°60'6 5.7
2016-Jun-15 19:33N 35°36' E 140°06'0 0.0
2016-Jun-15 18:33N 35°36' E 140°06'0 0.0
2016-Jun-15 17:33N 35°36' E 140°06'0 0.0
2016-Jun-15 16:33N 35°36' E 140°06'0 0.0
2016-Jun-15 15:33N 35°36' E 140°06'0 0.0
2016-Jun-15 14:33N 35°36' E 140°06'0 0.0
2016-Jun-15 13:33N 35°36' E 140°06'0 0.0
2016-Jun-15 12:33N 35°36' E 140°06'0 0.0
2016-Jun-15 11:33N 35°36' E 140°06'0 0.0
2016-Jun-15 10:33N 35°36' E 140°06'0 0.0
2016-Jun-15 09:33N 35°36' E 140°06'0 0.0
2016-Jun-15 08:33N 35°36' E 140°06'0 0.0
2016-Jun-15 07:33N 35°36' E 140°06'0 0.0
2016-Jun-15 06:33N 35°36' E 140°06'0 0.0
2016-Jun-15 05:33N 35°36' E 140°06'4 3.9
2016-Jun-15 04:33N 35°34' E 140°02'1312.9
2016-Jun-15 03:33N 35°30' E 139°47'1 0.7
2016-Jun-15 02:33N 35°31' E 139°46'0 0.0
2016-Jun-15 01:33N 35°31' E 139°46'0 0.0
2016-Jun-15 00:33N 35°31' E 139°46'0 0.0
2016-Jun-14 23:33N 35°31' E 139°46'1 1.3
2016-Jun-14 22:34N 35°30' E 139°48'2 1.8
2016-Jun-14 21:33N 35°28' E 139°48'0 0.0
2016-Jun-14 20:33N 35°28' E 139°48'0 0.0
2016-Jun-14 19:33N 35°28' E 139°48'0 0.0
2016-Jun-14 18:33N 35°28' E 139°48'0 0.0
2016-Jun-14 17:34N 35°28' E 139°48'0 0.0
2016-Jun-14 16:33N 35°28' E 139°48'0 0.0
2016-Jun-14 15:33N 35°28' E 139°48'4 3.9
2016-Jun-14 14:33N 35°25' E 139°47'1110.9
2016-Jun-14 13:33N 35°14' E 139°47'  
Track history (hours):
 
Tides and Currents Weather Stations Pressure Air Temp Water Temp Dewpoint Dewpoint Depression Visibility Wind Speed Wind Dir Waves Ship Positions

Yuho Maru No.3

Last reported at 2016-Jun-24 00:22 UTC. Time now 2016-Jun-30 10:33 UTC.
Position N 34°07' E 135°08'.

Length 65 m; draft 4.2 m.

Type: Tanker. MMSI: 431000336.

Date/timePositionNaut miles runAvg speedWind from/ knotsBaromVisibWave heightAir tempDewpointWater temp
2016-Jun-24 00:22N 34°07' E 135°08'0 0.0
2016-Jun-23 23:33N 34°07' E 135°08'0 0.0
2016-Jun-23 22:04N 34°07' E 135°08'0 1.0
2016-Jun-23 21:33N 34°07' E 135°08'0 0.0
2016-Jun-23 20:18N 34°07' E 135°08'0 0.0
2016-Jun-23 19:30N 34°07' E 135°08'0 0.2
2016-Jun-23 18:33N 34°07' E 135°07'  
2016-Jun-16 04:33N 35°14' E 139°46'1110.7
2016-Jun-16 03:33N 35°24' E 139°43'8 7.6
2016-Jun-16 02:33N 35°32' E 139°46'0 0.0
2016-Jun-16 01:33N 35°32' E 139°46'0 0.0
2016-Jun-16 00:33N 35°32' E 139°46'0 0.0
2016-Jun-15 23:33N 35°32' E 139°46'0 0.0
2016-Jun-15 22:33N 35°32' E 139°46'2 1.6
2016-Jun-15 21:33N 35°30' E 139°47'1110.9
2016-Jun-15 20:33N 35°34' E 139°60'6 5.7
2016-Jun-15 19:33N 35°36' E 140°06'0 0.0
2016-Jun-15 18:33N 35°36' E 140°06'0 0.0
2016-Jun-15 17:33N 35°36' E 140°06'0 0.0
2016-Jun-15 16:33N 35°36' E 140°06'0 0.0
2016-Jun-15 15:33N 35°36' E 140°06'0 0.0
2016-Jun-15 14:33N 35°36' E 140°06'0 0.0
2016-Jun-15 13:33N 35°36' E 140°06'0 0.0
2016-Jun-15 12:33N 35°36' E 140°06'0 0.0
2016-Jun-15 11:33N 35°36' E 140°06'0 0.0
2016-Jun-15 10:33N 35°36' E 140°06'0 0.0
2016-Jun-15 09:33N 35°36' E 140°06'0 0.0
2016-Jun-15 08:33N 35°36' E 140°06'0 0.0
2016-Jun-15 07:33N 35°36' E 140°06'0 0.0
2016-Jun-15 06:33N 35°36' E 140°06'0 0.0
2016-Jun-15 05:33N 35°36' E 140°06'4 3.9
2016-Jun-15 04:33N 35°34' E 140°02'1312.9
2016-Jun-15 03:33N 35°30' E 139°47'1 0.7
2016-Jun-15 02:33N 35°31' E 139°46'0 0.0
2016-Jun-15 01:33N 35°31' E 139°46'0 0.0
2016-Jun-15 00:33N 35°31' E 139°46'0 0.0
2016-Jun-14 23:33N 35°31' E 139°46'1 1.3
2016-Jun-14 22:34N 35°30' E 139°48'2 1.8
2016-Jun-14 21:33N 35°28' E 139°48'0 0.0
2016-Jun-14 20:33N 35°28' E 139°48'0 0.0
2016-Jun-14 19:33N 35°28' E 139°48'0 0.0
2016-Jun-14 18:33N 35°28' E 139°48'0 0.0
2016-Jun-14 17:34N 35°28' E 139°48'0 0.0
2016-Jun-14 16:33N 35°28' E 139°48'0 0.0
2016-Jun-14 15:33N 35°28' E 139°48'4 3.9
2016-Jun-14 14:33N 35°25' E 139°47'1110.9
2016-Jun-14 13:33N 35°14' E 139°47'  

Dump ship's entire track history